sensor_id;sensor_type;location;lat;lon;timestamp;temperature;humidity
16686;DHT22;8456;51.136;4.210;2022-08-01T00:00:33;22.00;99.90
16686;DHT22;8456;51.136;4.210;2022-08-01T00:02:59;21.90;99.90
16686;DHT22;8456;51.136;4.210;2022-08-01T00:05:25;21.90;99.90
16686;DHT22;8456;51.136;4.210;2022-08-01T00:07:50;21.90;99.90
16686;DHT22;8456;51.136;4.210;2022-08-01T00:10:17;21.90;99.90
16686;DHT22;8456;51.136;4.210;2022-08-01T00:12:43;21.90;99.90
16686;DHT22;8456;51.136;4.210;2022-08-01T00:15:12;22.00;99.90
16686;DHT22;8456;51.136;4.210;2022-08-01T00:17:38;22.00;99.90
16686;DHT22;8456;51.136;4.210;2022-08-01T00:20:06;22.00;99.90
16686;DHT22;8456;51.136;4.210;2022-08-01T00:22:33;21.90;99.90
16686;DHT22;8456;51.136;4.210;2022-08-01T00:25:00;21.90;99.90
16686;DHT22;8456;51.136;4.210;2022-08-01T00:27:26;21.90;99.90
16686;DHT22;8456;51.136;4.210;2022-08-01T00:29:52;21.90;99.90
16686;DHT22;8456;51.136;4.210;2022-08-01T00:32:18;21.90;99.90
16686;DHT22;8456;51.136;4.210;2022-08-01T00:34:44;21.80;99.90
16686;DHT22;8456;51.136;4.210;2022-08-01T00:37:10;21.90;99.90
16686;DHT22;8456;51.136;4.210;2022-08-01T00:39:36;21.90;99.90
16686;DHT22;8456;51.136;4.210;2022-08-01T00:42:11;21.90;99.90
16686;DHT22;8456;51.136;4.210;2022-08-01T00:44:38;21.90;99.90
16686;DHT22;8456;51.136;4.210;2022-08-01T00:47:05;21.80;99.90
16686;DHT22;8456;51.136;4.210;2022-08-01T00:49:31;21.70;99.90
16686;DHT22;8456;51.136;4.210;2022-08-01T00:51:57;21.70;99.90
16686;DHT22;8456;51.136;4.210;2022-08-01T00:54:27;21.70;99.90
16686;DHT22;8456;51.136;4.210;2022-08-01T00:56:53;21.70;99.90
16686;DHT22;8456;51.136;4.210;2022-08-01T00:59:21;21.70;99.90
16686;DHT22;8456;51.136;4.210;2022-08-01T01:01:48;21.60;99.90
16686;DHT22;8456;51.136;4.210;2022-08-01T01:04:14;21.70;99.90
16686;DHT22;8456;51.136;4.210;2022-08-01T01:06:42;21.70;99.90
16686;DHT22;8456;51.136;4.210;2022-08-01T01:09:26;21.60;99.90
16686;DHT22;8456;51.136;4.210;2022-08-01T01:14:38;21.40;99.90
16686;DHT22;8456;51.136;4.210;2022-08-01T01:17:07;21.40;99.90
16686;DHT22;8456;51.136;4.210;2022-08-01T01:19:37;21.30;99.90
16686;DHT22;8456;51.136;4.210;2022-08-01T01:30:51;21.30;99.90
16686;DHT22;8456;51.136;4.210;2022-08-01T01:33:19;21.20;99.90
16686;DHT22;8456;51.136;4.210;2022-08-01T01:35:49;21.30;99.90
16686;DHT22;8456;51.136;4.210;2022-08-01T01:38:20;21.30;99.90
16686;DHT22;8456;51.136;4.210;2022-08-01T01:40:48;21.20;99.90
16686;DHT22;8456;51.136;4.210;2022-08-01T01:43:15;21.30;99.90
16686;DHT22;8456;51.136;4.210;2022-08-01T01:45:47;21.30;99.90
16686;DHT22;8456;51.136;4.210;2022-08-01T01:48:16;21.20;99.90
16686;DHT22;8456;51.136;4.210;2022-08-01T01:50:44;21.20;99.90
16686;DHT22;8456;51.136;4.210;2022-08-01T01:53:12;21.10;99.90
16686;DHT22;8456;51.136;4.210;2022-08-01T01:55:40;21.20;99.90
16686;DHT22;8456;51.136;4.210;2022-08-01T01:58:08;21.20;99.90
16686;DHT22;8456;51.136;4.210;2022-08-01T02:00:37;21.20;99.90
16686;DHT22;8456;51.136;4.210;2022-08-01T02:03:05;21.00;99.90
16686;DHT22;8456;51.136;4.210;2022-08-01T02:05:32;21.00;99.90
16686;DHT22;8456;51.136;4.210;2022-08-01T02:08:01;21.00;99.90
16686;DHT22;8456;51.136;4.210;2022-08-01T02:10:30;21.00;99.90
16686;DHT22;8456;51.136;4.210;2022-08-01T02:12:57;21.00;99.90
16686;DHT22;8456;51.136;4.210;2022-08-01T02:15:26;20.90;99.90
16686;DHT22;8456;51.136;4.210;2022-08-01T02:17:54;20.80;99.90
16686;DHT22;8456;51.136;4.210;2022-08-01T02:20:22;20.80;99.90
16686;DHT22;8456;51.136;4.210;2022-08-01T02:23:00;20.70;99.90
16686;DHT22;8456;51.136;4.210;2022-08-01T02:25:31;20.60;99.90
16686;DHT22;8456;51.136;4.210;2022-08-01T02:28:06;20.50;99.90
16686;DHT22;8456;51.136;4.210;2022-08-01T02:30:34;20.40;99.90
16686;DHT22;8456;51.136;4.210;2022-08-01T02:33:12;20.40;99.90
16686;DHT22;8456;51.136;4.210;2022-08-01T02:35:42;20.30;99.90
16686;DHT22;8456;51.136;4.210;2022-08-01T02:38:12;20.40;99.90
16686;DHT22;8456;51.136;4.210;2022-08-01T02:40:41;20.30;99.90
16686;DHT22;8456;51.136;4.210;2022-08-01T02:43:09;20.30;99.90
16686;DHT22;8456;51.136;4.210;2022-08-01T02:45:42;20.30;99.90
16686;DHT22;8456;51.136;4.210;2022-08-01T02:48:11;20.30;99.90
16686;DHT22;8456;51.136;4.210;2022-08-01T02:50:40;20.30;99.90
16686;DHT22;8456;51.136;4.210;2022-08-01T02:53:09;20.30;99.90
16686;DHT22;8456;51.136;4.210;2022-08-01T02:55:38;20.30;99.90
16686;DHT22;8456;51.136;4.210;2022-08-01T02:58:06;20.30;99.90
16686;DHT22;8456;51.136;4.210;2022-08-01T03:00:34;20.30;99.90
16686;DHT22;8456;51.136;4.210;2022-08-01T03:03:01;20.40;99.90
16686;DHT22;8456;51.136;4.210;2022-08-01T03:05:28;20.40;99.90
16686;DHT22;8456;51.136;4.210;2022-08-01T03:07:57;20.50;99.90
16686;DHT22;8456;51.136;4.210;2022-08-01T03:10:24;20.50;99.90
16686;DHT22;8456;51.136;4.210;2022-08-01T03:12:52;20.50;99.90
16686;DHT22;8456;51.136;4.210;2022-08-01T03:15:19;20.50;99.90
16686;DHT22;8456;51.136;4.210;2022-08-01T03:17:47;20.50;99.90
16686;DHT22;8456;51.136;4.210;2022-08-01T03:20:16;20.40;99.90
16686;DHT22;8456;51.136;4.210;2022-08-01T03:22:44;20.50;99.90
16686;DHT22;8456;51.136;4.210;2022-08-01T03:25:12;20.50;99.90
16686;DHT22;8456;51.136;4.210;2022-08-01T03:27:41;20.50;99.90
16686;DHT22;8456;51.136;4.210;2022-08-01T03:30:07;20.50;99.90
16686;DHT22;8456;51.136;4.210;2022-08-01T03:32:33;20.50;99.90
16686;DHT22;8456;51.136;4.210;2022-08-01T03:34:59;20.50;99.90
16686;DHT22;8456;51.136;4.210;2022-08-01T03:37:28;20.50;99.90
16686;DHT22;8456;51.136;4.210;2022-08-01T03:40:02;20.50;99.90
16686;DHT22;8456;51.136;4.210;2022-08-01T03:42:35;20.60;99.90
16686;DHT22;8456;51.136;4.210;2022-08-01T03:45:06;20.50;99.90
16686;DHT22;8456;51.136;4.210;2022-08-01T03:47:35;20.50;99.90
16686;DHT22;8456;51.136;4.210;2022-08-01T03:50:03;20.50;99.90
16686;DHT22;8456;51.136;4.210;2022-08-01T03:52:30;20.50;99.90
16686;DHT22;8456;51.136;4.210;2022-08-01T03:55:01;20.50;99.90
16686;DHT22;8456;51.136;4.210;2022-08-01T03:57:28;20.40;99.90
16686;DHT22;8456;51.136;4.210;2022-08-01T03:59:57;20.30;99.90
16686;DHT22;8456;51.136;4.210;2022-08-01T04:02:23;20.20;99.90
16686;DHT22;8456;51.136;4.210;2022-08-01T04:04:50;20.20;99.90
16686;DHT22;8456;51.136;4.210;2022-08-01T04:07:25;20.10;99.90
16686;DHT22;8456;51.136;4.210;2022-08-01T04:09:51;20.10;99.90
16686;DHT22;8456;51.136;4.210;2022-08-01T04:12:17;20.10;99.90
16686;DHT22;8456;51.136;4.210;2022-08-01T04:14:43;20.10;99.90
16686;DHT22;8456;51.136;4.210;2022-08-01T04:17:09;20.20;99.90
16686;DHT22;8456;51.136;4.210;2022-08-01T04:19:35;20.20;99.90
16686;DHT22;8456;51.136;4.210;2022-08-01T04:22:01;20.30;99.90
16686;DHT22;8456;51.136;4.210;2022-08-01T04:24:28;20.30;99.90
16686;DHT22;8456;51.136;4.210;2022-08-01T04:26:57;20.30;99.90
16686;DHT22;8456;51.136;4.210;2022-08-01T04:29:24;20.30;99.90
16686;DHT22;8456;51.136;4.210;2022-08-01T04:31:53;20.40;99.90
16686;DHT22;8456;51.136;4.210;2022-08-01T04:34:22;20.40;99.90
16686;DHT22;8456;51.136;4.210;2022-08-01T04:36:50;20.50;99.90
16686;DHT22;8456;51.136;4.210;2022-08-01T04:39:18;20.50;99.90
16686;DHT22;8456;51.136;4.210;2022-08-01T04:41:46;20.50;99.90
16686;DHT22;8456;51.136;4.210;2022-08-01T04:44:13;20.40;99.90
16686;DHT22;8456;51.136;4.210;2022-08-01T04:46:39;20.40;99.90
16686;DHT22;8456;51.136;4.210;2022-08-01T04:49:10;20.40;99.90
16686;DHT22;8456;51.136;4.210;2022-08-01T04:51:52;20.30;99.90
16686;DHT22;8456;51.136;4.210;2022-08-01T04:54:24;20.40;99.90
16686;DHT22;8456;51.136;4.210;2022-08-01T04:56:50;20.40;99.90
16686;DHT22;8456;51.136;4.210;2022-08-01T04:59:19;20.40;99.90
16686;DHT22;8456;51.136;4.210;2022-08-01T05:02:04;20.40;99.90
16686;DHT22;8456;51.136;4.210;2022-08-01T05:04:29;20.40;99.90
16686;DHT22;8456;51.136;4.210;2022-08-01T05:06:55;20.40;99.90
16686;DHT22;8456;51.136;4.210;2022-08-01T05:09:21;20.40;99.90
16686;DHT22;8456;51.136;4.210;2022-08-01T05:11:47;20.50;99.90
16686;DHT22;8456;51.136;4.210;2022-08-01T05:14:12;20.40;99.90
16686;DHT22;8456;51.136;4.210;2022-08-01T05:16:38;20.50;99.90
16686;DHT22;8456;51.136;4.210;2022-08-01T05:19:04;20.50;99.90
16686;DHT22;8456;51.136;4.210;2022-08-01T05:21:30;20.50;99.90
16686;DHT22;8456;51.136;4.210;2022-08-01T05:23:55;20.60;99.90
16686;DHT22;8456;51.136;4.210;2022-08-01T05:26:21;20.70;99.90
16686;DHT22;8456;51.136;4.210;2022-08-01T05:28:48;20.80;99.90
16686;DHT22;8456;51.136;4.210;2022-08-01T05:31:14;20.90;99.90
16686;DHT22;8456;51.136;4.210;2022-08-01T05:33:39;21.00;99.90
16686;DHT22;8456;51.136;4.210;2022-08-01T05:36:05;21.10;99.90
16686;DHT22;8456;51.136;4.210;2022-08-01T05:38:31;21.20;99.90
16686;DHT22;8456;51.136;4.210;2022-08-01T05:40:57;21.30;99.90
16686;DHT22;8456;51.136;4.210;2022-08-01T05:43:23;21.50;99.90
16686;DHT22;8456;51.136;4.210;2022-08-01T05:45:48;21.60;99.90
16686;DHT22;8456;51.136;4.210;2022-08-01T05:48:14;21.60;99.90
16686;DHT22;8456;51.136;4.210;2022-08-01T05:50:40;21.70;99.90
16686;DHT22;8456;51.136;4.210;2022-08-01T05:53:06;21.80;99.90
16686;DHT22;8456;51.136;4.210;2022-08-01T05:55:32;21.90;99.90
16686;DHT22;8456;51.136;4.210;2022-08-01T05:57:57;22.00;99.90
16686;DHT22;8456;51.136;4.210;2022-08-01T06:00:23;22.20;99.90
16686;DHT22;8456;51.136;4.210;2022-08-01T06:02:49;22.30;99.90
16686;DHT22;8456;51.136;4.210;2022-08-01T06:05:15;22.30;99.90
16686;DHT22;8456;51.136;4.210;2022-08-01T06:07:41;22.30;99.90
16686;DHT22;8456;51.136;4.210;2022-08-01T06:10:08;22.20;99.90
16686;DHT22;8456;51.136;4.210;2022-08-01T06:12:34;22.10;99.90
16686;DHT22;8456;51.136;4.210;2022-08-01T06:15:00;22.30;99.90
16686;DHT22;8456;51.136;4.210;2022-08-01T06:17:26;22.60;99.90
16686;DHT22;8456;51.136;4.210;2022-08-01T06:19:52;23.30;99.90
16686;DHT22;8456;51.136;4.210;2022-08-01T06:22:17;24.40;99.90
16686;DHT22;8456;51.136;4.210;2022-08-01T06:24:43;25.60;99.90
16686;DHT22;8456;51.136;4.210;2022-08-01T06:27:09;26.40;99.90
16686;DHT22;8456;51.136;4.210;2022-08-01T06:29:34;25.80;99.90
16686;DHT22;8456;51.136;4.210;2022-08-01T06:32:00;25.50;99.90
16686;DHT22;8456;51.136;4.210;2022-08-01T06:34:26;25.20;99.90
16686;DHT22;8456;51.136;4.210;2022-08-01T06:36:52;25.20;99.90
16686;DHT22;8456;51.136;4.210;2022-08-01T06:39:18;25.40;99.90
16686;DHT22;8456;51.136;4.210;2022-08-01T06:41:44;25.50;99.90
16686;DHT22;8456;51.136;4.210;2022-08-01T06:44:12;25.30;99.90
16686;DHT22;8456;51.136;4.210;2022-08-01T06:46:38;24.80;99.90
16686;DHT22;8456;51.136;4.210;2022-08-01T06:49:04;24.40;99.90
16686;DHT22;8456;51.136;4.210;2022-08-01T06:51:30;24.30;99.90
16686;DHT22;8456;51.136;4.210;2022-08-01T06:53:56;24.50;99.90
16686;DHT22;8456;51.136;4.210;2022-08-01T06:56:22;24.50;99.90
16686;DHT22;8456;51.136;4.210;2022-08-01T06:58:49;24.60;99.90
16686;DHT22;8456;51.136;4.210;2022-08-01T07:01:15;24.50;99.90
16686;DHT22;8456;51.136;4.210;2022-08-01T07:03:41;24.50;99.90
16686;DHT22;8456;51.136;4.210;2022-08-01T07:06:07;24.50;99.90
16686;DHT22;8456;51.136;4.210;2022-08-01T07:08:33;24.70;99.90
16686;DHT22;8456;51.136;4.210;2022-08-01T07:10:59;24.90;99.90
16686;DHT22;8456;51.136;4.210;2022-08-01T07:13:28;25.10;99.90
16686;DHT22;8456;51.136;4.210;2022-08-01T07:15:56;25.40;99.90
16686;DHT22;8456;51.136;4.210;2022-08-01T07:18:22;26.00;99.90
16686;DHT22;8456;51.136;4.210;2022-08-01T07:20:48;26.40;99.90
16686;DHT22;8456;51.136;4.210;2022-08-01T07:23:16;26.10;99.90
16686;DHT22;8456;51.136;4.210;2022-08-01T07:25:42;25.80;99.90
16686;DHT22;8456;51.136;4.210;2022-08-01T07:28:08;25.70;99.90
16686;DHT22;8456;51.136;4.210;2022-08-01T07:30:34;26.00;99.90
16686;DHT22;8456;51.136;4.210;2022-08-01T07:33:00;26.20;99.90
16686;DHT22;8456;51.136;4.210;2022-08-01T07:35:26;26.00;99.90
16686;DHT22;8456;51.136;4.210;2022-08-01T07:37:55;26.00;99.90
16686;DHT22;8456;51.136;4.210;2022-08-01T07:40:21;25.70;99.90
16686;DHT22;8456;51.136;4.210;2022-08-01T07:42:47;25.60;99.90
16686;DHT22;8456;51.136;4.210;2022-08-01T07:45:13;25.40;99.90
16686;DHT22;8456;51.136;4.210;2022-08-01T07:47:40;25.20;99.90
16686;DHT22;8456;51.136;4.210;2022-08-01T07:50:06;25.10;99.90
16686;DHT22;8456;51.136;4.210;2022-08-01T07:52:32;25.20;99.90
16686;DHT22;8456;51.136;4.210;2022-08-01T07:54:59;25.30;99.90
16686;DHT22;8456;51.136;4.210;2022-08-01T07:57:25;25.40;99.90
16686;DHT22;8456;51.136;4.210;2022-08-01T07:59:51;25.80;99.90
16686;DHT22;8456;51.136;4.210;2022-08-01T08:02:17;26.20;99.90
16686;DHT22;8456;51.136;4.210;2022-08-01T08:04:43;26.60;99.90
16686;DHT22;8456;51.136;4.210;2022-08-01T08:07:08;26.70;99.90
16686;DHT22;8456;51.136;4.210;2022-08-01T08:09:34;26.80;99.90
16686;DHT22;8456;51.136;4.210;2022-08-01T08:12:00;26.30;99.90
16686;DHT22;8456;51.136;4.210;2022-08-01T08:14:26;26.40;99.90
16686;DHT22;8456;51.136;4.210;2022-08-01T08:16:52;26.10;99.90
16686;DHT22;8456;51.136;4.210;2022-08-01T08:19:18;26.40;99.90
16686;DHT22;8456;51.136;4.210;2022-08-01T08:21:43;27.30;99.90
16686;DHT22;8456;51.136;4.210;2022-08-01T08:24:10;28.70;99.90
16686;DHT22;8456;51.136;4.210;2022-08-01T08:26:49;30.10;99.90
16686;DHT22;8456;51.136;4.210;2022-08-01T08:29:16;30.50;99.90
16686;DHT22;8456;51.136;4.210;2022-08-01T08:31:43;30.90;99.90
16686;DHT22;8456;51.136;4.210;2022-08-01T08:34:09;31.60;99.90
16686;DHT22;8456;51.136;4.210;2022-08-01T08:36:37;31.40;99.90
16686;DHT22;8456;51.136;4.210;2022-08-01T08:39:04;30.20;99.90
16686;DHT22;8456;51.136;4.210;2022-08-01T08:41:31;29.40;99.90
16686;DHT22;8456;51.136;4.210;2022-08-01T08:43:57;28.30;99.90
16686;DHT22;8456;51.136;4.210;2022-08-01T08:46:27;27.70;99.90
16686;DHT22;8456;51.136;4.210;2022-08-01T08:48:54;27.30;99.90
16686;DHT22;8456;51.136;4.210;2022-08-01T08:51:21;26.80;99.90
16686;DHT22;8456;51.136;4.210;2022-08-01T08:53:50;26.70;99.90
16686;DHT22;8456;51.136;4.210;2022-08-01T08:56:18;27.60;99.90
16686;DHT22;8456;51.136;4.210;2022-08-01T08:58:45;27.90;99.90
16686;DHT22;8456;51.136;4.210;2022-08-01T09:01:11;28.50;99.90
16686;DHT22;8456;51.136;4.210;2022-08-01T09:03:38;29.00;99.90
16686;DHT22;8456;51.136;4.210;2022-08-01T09:06:04;29.60;99.90
16686;DHT22;8456;51.136;4.210;2022-08-01T09:08:30;30.00;99.90
16686;DHT22;8456;51.136;4.210;2022-08-01T09:10:56;30.40;99.90
16686;DHT22;8456;51.136;4.210;2022-08-01T09:13:22;31.40;99.90
16686;DHT22;8456;51.136;4.210;2022-08-01T09:15:53;31.80;99.90
16686;DHT22;8456;51.136;4.210;2022-08-01T09:18:37;31.30;99.90
16686;DHT22;8456;51.136;4.210;2022-08-01T09:23:52;29.50;99.90
16686;DHT22;8456;51.136;4.210;2022-08-01T09:26:29;28.80;99.90
16686;DHT22;8456;51.136;4.210;2022-08-01T09:28:56;29.50;99.90
16686;DHT22;8456;51.136;4.210;2022-08-01T09:31:22;30.50;99.90
16686;DHT22;8456;51.136;4.210;2022-08-01T09:33:53;30.30;99.90
16686;DHT22;8456;51.136;4.210;2022-08-01T09:36:21;29.80;99.90
16686;DHT22;8456;51.136;4.210;2022-08-01T09:38:48;29.20;99.90
16686;DHT22;8456;51.136;4.210;2022-08-01T09:41:15;29.40;99.90
16686;DHT22;8456;51.136;4.210;2022-08-01T09:43:47;30.10;99.90
16686;DHT22;8456;51.136;4.210;2022-08-01T09:46:13;30.20;99.90
16686;DHT22;8456;51.136;4.210;2022-08-01T09:48:59;30.10;99.90
16686;DHT22;8456;51.136;4.210;2022-08-01T09:51:34;30.20;99.90
16686;DHT22;8456;51.136;4.210;2022-08-01T09:54:01;30.50;99.50
16686;DHT22;8456;51.136;4.210;2022-08-01T09:56:39;30.30;98.70
16686;DHT22;8456;51.136;4.210;2022-08-01T09:59:07;30.40;99.70
16686;DHT22;8456;51.136;4.210;2022-08-01T10:01:45;30.80;99.50
16686;DHT22;8456;51.136;4.210;2022-08-01T10:04:19;31.00;98.90
16686;DHT22;8456;51.136;4.210;2022-08-01T10:06:50;31.10;99.50
16686;DHT22;8456;51.136;4.210;2022-08-01T10:09:32;30.90;97.90
16686;DHT22;8456;51.136;4.210;2022-08-01T10:11:59;30.70;98.70
16686;DHT22;8456;51.136;4.210;2022-08-01T10:14:26;30.60;98.80
16686;DHT22;8456;51.136;4.210;2022-08-01T10:16:53;30.30;97.90
16686;DHT22;8456;51.136;4.210;2022-08-01T10:19:26;30.30;98.70
16686;DHT22;8456;51.136;4.210;2022-08-01T10:21:53;30.30;98.40
16686;DHT22;8456;51.136;4.210;2022-08-01T10:24:20;30.20;98.40
16686;DHT22;8456;51.136;4.210;2022-08-01T10:26:48;29.90;98.10
16686;DHT22;8456;51.136;4.210;2022-08-01T10:29:18;29.70;98.30
16686;DHT22;8456;51.136;4.210;2022-08-01T10:31:48;29.60;98.80
16686;DHT22;8456;51.136;4.210;2022-08-01T10:34:16;29.40;98.50
16686;DHT22;8456;51.136;4.210;2022-08-01T10:36:47;29.20;98.90
16686;DHT22;8456;51.136;4.210;2022-08-01T10:39:13;29.20;99.90
16686;DHT22;8456;51.136;4.210;2022-08-01T10:41:40;29.20;99.60
16686;DHT22;8456;51.136;4.210;2022-08-01T10:44:09;29.30;99.90
16686;DHT22;8456;51.136;4.210;2022-08-01T10:46:39;29.30;99.70
16686;DHT22;8456;51.136;4.210;2022-08-01T10:49:12;29.40;99.30
16686;DHT22;8456;51.136;4.210;2022-08-01T10:51:39;29.70;99.50
16686;DHT22;8456;51.136;4.210;2022-08-01T10:54:07;29.80;98.70
16686;DHT22;8456;51.136;4.210;2022-08-01T10:56:44;29.80;97.80
16686;DHT22;8456;51.136;4.210;2022-08-01T10:59:24;29.90;98.00
16686;DHT22;8456;51.136;4.210;2022-08-01T11:02:04;29.70;97.60
16686;DHT22;8456;51.136;4.210;2022-08-01T11:04:34;29.70;96.80
16686;DHT22;8456;51.136;4.210;2022-08-01T11:07:07;29.60;97.60
16686;DHT22;8456;51.136;4.210;2022-08-01T11:09:43;29.50;98.10
16686;DHT22;8456;51.136;4.210;2022-08-01T11:12:14;29.40;98.50
16686;DHT22;8456;51.136;4.210;2022-08-01T11:17:40;29.10;99.00
16686;DHT22;8456;51.136;4.210;2022-08-01T11:20:24;29.10;99.00
16686;DHT22;8456;51.136;4.210;2022-08-01T11:28:22;29.40;98.10
16686;DHT22;8456;51.136;4.210;2022-08-01T11:38:40;29.00;99.10
16686;DHT22;8456;51.136;4.210;2022-08-01T11:41:23;28.80;99.20
16686;DHT22;8456;51.136;4.210;2022-08-01T11:44:11;28.60;99.30
16686;DHT22;8456;51.136;4.210;2022-08-01T11:52:19;28.60;99.00
16686;DHT22;8456;51.136;4.210;2022-08-01T11:57:27;28.70;99.60
16686;DHT22;8456;51.136;4.210;2022-08-01T11:59:58;28.60;97.60
16686;DHT22;8456;51.136;4.210;2022-08-01T12:02:32;28.40;98.50
16686;DHT22;8456;51.136;4.210;2022-08-01T12:05:10;28.20;97.80
16686;DHT22;8456;51.136;4.210;2022-08-01T12:07:39;28.10;98.50
16686;DHT22;8456;51.136;4.210;2022-08-01T12:10:12;28.20;98.50
16686;DHT22;8456;51.136;4.210;2022-08-01T12:12:50;28.50;98.20
16686;DHT22;8456;51.136;4.210;2022-08-01T12:15:16;28.60;98.10
16686;DHT22;8456;51.136;4.210;2022-08-01T12:17:51;28.40;97.30
16686;DHT22;8456;51.136;4.210;2022-08-01T12:20:20;28.60;97.10
16686;DHT22;8456;51.136;4.210;2022-08-01T12:22:47;28.60;97.10
16686;DHT22;8456;51.136;4.210;2022-08-01T12:25:17;28.70;97.70
16686;DHT22;8456;51.136;4.210;2022-08-01T12:27:45;28.90;97.90
16686;DHT22;8456;51.136;4.210;2022-08-01T12:30:13;29.00;97.60
16686;DHT22;8456;51.136;4.210;2022-08-01T12:32:41;28.90;95.90
16686;DHT22;8456;51.136;4.210;2022-08-01T12:35:20;29.00;96.40
16686;DHT22;8456;51.136;4.210;2022-08-01T12:37:51;28.80;96.40
16686;DHT22;8456;51.136;4.210;2022-08-01T12:40:31;28.70;96.40
16686;DHT22;8456;51.136;4.210;2022-08-01T12:43:03;28.70;96.60
16686;DHT22;8456;51.136;4.210;2022-08-01T12:45:41;28.60;96.40
16686;DHT22;8456;51.136;4.210;2022-08-01T12:48:11;28.50;96.70
16686;DHT22;8456;51.136;4.210;2022-08-01T12:50:46;28.50;96.40
16686;DHT22;8456;51.136;4.210;2022-08-01T12:53:13;28.60;96.80
16686;DHT22;8456;51.136;4.210;2022-08-01T12:55:48;28.70;97.30
16686;DHT22;8456;51.136;4.210;2022-08-01T12:58:16;28.80;97.30
16686;DHT22;8456;51.136;4.210;2022-08-01T13:00:44;29.10;97.90
16686;DHT22;8456;51.136;4.210;2022-08-01T13:03:12;29.00;97.30
16686;DHT22;8456;51.136;4.210;2022-08-01T13:11:03;28.70;95.60
16686;DHT22;8456;51.136;4.210;2022-08-01T13:13:50;28.80;95.60
16686;DHT22;8456;51.136;4.210;2022-08-01T13:16:25;28.80;94.90
16686;DHT22;8456;51.136;4.210;2022-08-01T13:18:57;28.70;95.40
16686;DHT22;8456;51.136;4.210;2022-08-01T13:21:28;28.60;95.80
16686;DHT22;8456;51.136;4.210;2022-08-01T13:24:04;28.70;95.10
16686;DHT22;8456;51.136;4.210;2022-08-01T13:29:09;28.60;96.00
16686;DHT22;8456;51.136;4.210;2022-08-01T13:31:36;28.50;96.80
16686;DHT22;8456;51.136;4.210;2022-08-01T13:34:02;28.60;96.80
16686;DHT22;8456;51.136;4.210;2022-08-01T13:36:28;28.30;97.00
16686;DHT22;8456;51.136;4.210;2022-08-01T13:39:00;28.20;97.00
16686;DHT22;8456;51.136;4.210;2022-08-01T13:41:45;28.30;97.70
16686;DHT22;8456;51.136;4.210;2022-08-01T13:44:12;28.40;97.50
16686;DHT22;8456;51.136;4.210;2022-08-01T13:46:39;28.50;97.10
16686;DHT22;8456;51.136;4.210;2022-08-01T13:49:06;28.30;97.00
16686;DHT22;8456;51.136;4.210;2022-08-01T13:51:35;28.00;97.10
16686;DHT22;8456;51.136;4.210;2022-08-01T13:54:01;28.00;96.30
16686;DHT22;8456;51.136;4.210;2022-08-01T13:56:27;28.00;97.50
16686;DHT22;8456;51.136;4.210;2022-08-01T13:58:54;27.90;98.20
16686;DHT22;8456;51.136;4.210;2022-08-01T14:01:20;28.00;96.60
16686;DHT22;8456;51.136;4.210;2022-08-01T14:03:47;28.00;97.60
16686;DHT22;8456;51.136;4.210;2022-08-01T14:06:14;28.10;97.50
16686;DHT22;8456;51.136;4.210;2022-08-01T14:08:42;28.00;97.10
16686;DHT22;8456;51.136;4.210;2022-08-01T14:11:08;27.90;97.10
16686;DHT22;8456;51.136;4.210;2022-08-01T14:13:34;27.50;96.30
16686;DHT22;8456;51.136;4.210;2022-08-01T14:16:02;27.40;96.30
16686;DHT22;8456;51.136;4.210;2022-08-01T14:18:28;27.40;97.40
16686;DHT22;8456;51.136;4.210;2022-08-01T14:20:54;27.40;97.70
16686;DHT22;8456;51.136;4.210;2022-08-01T14:23:20;27.30;97.10
16686;DHT22;8456;51.136;4.210;2022-08-01T14:25:45;27.30;98.00
16686;DHT22;8456;51.136;4.210;2022-08-01T14:28:20;27.40;96.40
16686;DHT22;8456;51.136;4.210;2022-08-01T14:30:46;27.40;97.00
16686;DHT22;8456;51.136;4.210;2022-08-01T14:33:12;27.20;96.10
16686;DHT22;8456;51.136;4.210;2022-08-01T14:35:39;27.20;95.90
16686;DHT22;8456;51.136;4.210;2022-08-01T14:38:05;27.10;96.20
16686;DHT22;8456;51.136;4.210;2022-08-01T14:40:31;27.00;96.30
16686;DHT22;8456;51.136;4.210;2022-08-01T14:42:57;26.90;96.40
16686;DHT22;8456;51.136;4.210;2022-08-01T14:45:23;26.90;96.40
16686;DHT22;8456;51.136;4.210;2022-08-01T14:47:49;27.00;95.90
16686;DHT22;8456;51.136;4.210;2022-08-01T14:50:15;26.90;94.30
16686;DHT22;8456;51.136;4.210;2022-08-01T14:52:42;27.00;93.90
16686;DHT22;8456;51.136;4.210;2022-08-01T14:55:09;26.90;94.30
16686;DHT22;8456;51.136;4.210;2022-08-01T14:57:36;26.90;94.30
16686;DHT22;8456;51.136;4.210;2022-08-01T15:00:05;27.00;94.00
16686;DHT22;8456;51.136;4.210;2022-08-01T15:02:31;27.00;94.50
16686;DHT22;8456;51.136;4.210;2022-08-01T15:04:57;26.90;94.00
16686;DHT22;8456;51.136;4.210;2022-08-01T15:07:22;26.90;94.10
16686;DHT22;8456;51.136;4.210;2022-08-01T15:09:48;26.90;94.10
16686;DHT22;8456;51.136;4.210;2022-08-01T15:12:14;26.90;94.40
16686;DHT22;8456;51.136;4.210;2022-08-01T15:14:40;27.00;94.10
16686;DHT22;8456;51.136;4.210;2022-08-01T15:17:22;27.00;94.40
16686;DHT22;8456;51.136;4.210;2022-08-01T15:19:51;27.00;94.20
16686;DHT22;8456;51.136;4.210;2022-08-01T15:22:19;27.00;94.40
16686;DHT22;8456;51.136;4.210;2022-08-01T15:24:46;26.90;94.00
16686;DHT22;8456;51.136;4.210;2022-08-01T15:27:12;26.90;94.40
16686;DHT22;8456;51.136;4.210;2022-08-01T15:29:38;27.00;94.70
16686;DHT22;8456;51.136;4.210;2022-08-01T15:32:05;27.10;94.20
16686;DHT22;8456;51.136;4.210;2022-08-01T15:34:32;27.00;95.20
16686;DHT22;8456;51.136;4.210;2022-08-01T15:36:58;27.00;94.20
16686;DHT22;8456;51.136;4.210;2022-08-01T15:39:24;27.10;94.40
16686;DHT22;8456;51.136;4.210;2022-08-01T15:41:50;27.10;94.70
16686;DHT22;8456;51.136;4.210;2022-08-01T15:44:16;27.10;94.60
16686;DHT22;8456;51.136;4.210;2022-08-01T15:46:46;27.00;92.40
16686;DHT22;8456;51.136;4.210;2022-08-01T15:49:12;26.80;93.30
16686;DHT22;8456;51.136;4.210;2022-08-01T15:51:38;26.70;92.70
16686;DHT22;8456;51.136;4.210;2022-08-01T15:54:04;26.60;92.90
16686;DHT22;8456;51.136;4.210;2022-08-01T15:56:32;26.50;93.20
16686;DHT22;8456;51.136;4.210;2022-08-01T15:58:58;26.60;93.10
16686;DHT22;8456;51.136;4.210;2022-08-01T16:01:24;26.70;93.80
16686;DHT22;8456;51.136;4.210;2022-08-01T16:03:53;26.70;92.50
16686;DHT22;8456;51.136;4.210;2022-08-01T16:06:19;26.80;92.50
16686;DHT22;8456;51.136;4.210;2022-08-01T16:08:45;26.80;92.60
16686;DHT22;8456;51.136;4.210;2022-08-01T16:11:11;26.80;91.90
16686;DHT22;8456;51.136;4.210;2022-08-01T16:13:37;26.70;91.70
16686;DHT22;8456;51.136;4.210;2022-08-01T16:16:03;26.70;92.00
16686;DHT22;8456;51.136;4.210;2022-08-01T16:18:30;26.40;92.00
16686;DHT22;8456;51.136;4.210;2022-08-01T16:20:56;26.30;93.00
16686;DHT22;8456;51.136;4.210;2022-08-01T16:23:25;26.30;92.80
16686;DHT22;8456;51.136;4.210;2022-08-01T16:25:51;26.30;93.20
16686;DHT22;8456;51.136;4.210;2022-08-01T16:28:18;26.40;93.50
16686;DHT22;8456;51.136;4.210;2022-08-01T16:30:44;26.40;93.10
16686;DHT22;8456;51.136;4.210;2022-08-01T16:33:10;26.40;93.40
16686;DHT22;8456;51.136;4.210;2022-08-01T16:35:36;26.30;93.60
16686;DHT22;8456;51.136;4.210;2022-08-01T16:38:06;26.30;93.80